Nearby METAR Reports

 

KIAD - Wash Dc/Dulles, Virginia, USA
Distance from station: ESE 7mi, 11km
Updated: Tue, 02-Jun-2020 11:52am EDT
Mostly cloudy
Mostly cloudy
 Wind from calm
Wind: Calm
Temperature: 72°F , 22°C
Dew Point: 46°F , 8°C
Humidity: 41%
Barometer: 30.07 inHg , 1018.3 hPa
Clouds: Mostly cloudy
Visibility: 10 miles , 16 km
Cloud details: Partly cloudy 8500 ft
Mostly cloudy 16000 ft
Mostly cloudy 25000 ft
2020/06/02 15:52 KIAD 021552Z 00000KT 10SM SCT085 BKN160 BKN250 22/08 A3007 RMK AO2 SLP181 T02170083
KJYO - Leesburg/Godfrey, Virginia, USA
Distance from station: N 7mi, 12km
Updated: Tue, 02-Jun-2020 12:15pm EDT
Mostly cloudy
Mostly cloudy
 Wind from calm
Wind: Calm
Temperature: 68°F , 20°C
Dew Point: 46°F , 8°C
Humidity: 46%
Barometer: 30.08 inHg , 1018.6 hPa
Clouds: Mostly cloudy
Visibility: 10 miles , 16 km
Cloud details: Mostly cloudy 10000 ft
2020/06/02 16:15 KJYO 021615Z AUTO 00000KT 10SM BKN100 20/08 A3008 RMK AO2
 
KHEF - Manassas Muni, Virginia, USA
Distance from station: S 17mi, 28km
Updated: Tue, 02-Jun-2020 11:56am EDT
Partly cloudy
Partly cloudy
 Wind from varies
Wind: varies 3 mph , 6 km/h
Temperature: 70°F , 21°C
Dew Point: 48°F , 9°C
Humidity: 46%
Barometer: 30.08 inHg , 1018.6 hPa
Clouds: Partly cloudy
Visibility: 10 miles , 16 km
Cloud details: Partly cloudy 9000 ft
2020/06/02 15:56 KHEF 021556Z VRB03KT 10SM SCT090 21/09 A3008 RMK AO2 SLP190 T02110089
KGAI - Gaithersburg, Maryland, USA
Distance from station: NE 26mi, 41km
Updated: Tue, 02-Jun-2020 11:56am EDT
Overcast
Overcast
 Wind from calm
Wind: Calm
Temperature: 66°F , 19°C
Dew Point: 48°F , 9°C
Humidity: 52%
Barometer: 30.08 inHg , 1018.6 hPa
Clouds: Overcast
Visibility: 10 miles , 16 km
Cloud details: Overcast 8000 ft
2020/06/02 15:56 KGAI 021556Z AUTO 00000KT 10SM OVC080 19/09 A3008 RMK AO2 SLP200 T01940094
 
KDAA - Fort Belvoir/Dav, Virginia, USA
Distance from station: SE 27mi, 44km
Updated: Tue, 02-Jun-2020 11:56am EDT
Mostly cloudy
Mostly cloudy
 Wind from SE
Wind: SE 5 mph , 7 km/h
Temperature: 68°F , 20°C
Dew Point: 54°F , 12°C
Humidity: 60%
Barometer: 30.08 inHg , 1018.6 hPa
Clouds: Mostly cloudy
Visibility: 10 miles , 16 km
Cloud details: Partly cloudy 8500 ft
Partly cloudy 13000 ft
Mostly cloudy 19000 ft
2020/06/02 15:56 KDAA 021556Z AUTO 14004KT 10SM SCT085 SCT130 BKN190 20/12 A3008 RMK AO2 SLP189 T02000117 TSNO $
KHWY - Warrenton, Virginia, USA
Distance from station: SSW 27mi, 44km
Updated: Tue, 02-Jun-2020 12:15pm EDT
Partly cloudy
Partly cloudy
 Wind from SSW
Wind: SSW 6 mph , 9 km/h
Temperature: 73°F , 23°C
Dew Point: 43°F , 6°C
Humidity: 33%
Barometer: 30.07 inHg , 1018.3 hPa
Clouds: Partly cloudy
Visibility: 10 miles , 16 km
Cloud details: Partly cloudy 11000 ft
2020/06/02 16:15 KHWY 021615Z AUTO 21005KT 10SM SCT110 23/06 A3007 RMK AO2 T02330055
 
KDCA - Washington/Natl, Washington D.c., USA
Distance from station: ESE 30mi, 48km
Updated: Tue, 02-Jun-2020 11:52am EDT
Mostly cloudy
Mostly cloudy
 Wind from SE
Wind: SE 5 mph , 7 km/h
Temperature: 66°F , 19°C
Dew Point: 52°F , 11°C
Humidity: 60%
Barometer: 30.08 inHg , 1018.6 hPa
Clouds: Mostly cloudy
Visibility: 10 miles , 16 km
Cloud details: Mostly cloudy 6000 ft
Mostly cloudy 12000 ft
2020/06/02 15:52 KDCA 021552Z 13004KT 10SM BKN060 BKN120 19/11 A3008 RMK AO2 RAE00 SLP186 P0000 T01890106
KFDK - Frederick, Maryland, USA
Distance from station: NNE 33mi, 53km
Updated: Tue, 02-Jun-2020 11:47am EDT
Mostly cloudy
Mostly cloudy
 Wind from calm
Wind: Calm
Temperature: 66°F , 19°C
Dew Point: 48°F , 9°C
Humidity: 52%
Barometer: 30.08 inHg , 1018.6 hPa
Clouds: Mostly cloudy
Visibility: 10 miles , 16 km
Cloud details: Mostly cloudy 8000 ft
2020/06/02 15:47 KFDK 021547Z 00000KT 10SM BKN080 19/09 A3008
 
KOKV - Winchester Rgnl, Virginia, USA
Distance from station: WNW 33mi, 54km
Updated: Tue, 02-Jun-2020 12:15pm EDT
Overcast
Overcast
 Wind from S
Wind: S 5 mph , 7 km/h
Temperature: 68°F , 20°C
Dew Point: 45°F , 7°C
Humidity: 43%
Barometer: 30.05 inHg , 1017.6 hPa
Clouds: Overcast
Visibility: 10 miles , 16 km
Cloud details: Overcast 9500 ft
2020/06/02 16:15 KOKV 021615Z AUTO 19004KT 10SM OVC095 20/07 A3005 RMK AO2
KCJR - Culpeper, Virginia, USA
Distance from station: SSW 34mi, 54km
Updated: Tue, 02-Jun-2020 12:15pm EDT
Partly cloudy
Partly cloudy
 Wind from SW
Wind: SW 5 mph , 7 km/h
Temperature: 75°F , 24°C
Dew Point: 43°F , 6°C
Humidity: 31%
Barometer: 30.07 inHg , 1018.3 hPa
Clouds: Partly cloudy
Visibility: 10 miles , 16 km
Cloud details: Partly cloudy 11000 ft
2020/06/02 16:15 KCJR 021615Z AUTO 22004KT 10SM SCT110 24/06 A3007 RMK AO2 T02400056
 
KCGS - College Park, Maryland, USA
Distance from station: E 35mi, 56km
Updated: Tue, 02-Jun-2020 12:15pm EDT
Mostly cloudy
Mostly cloudy
 Wind from calm
Wind: Calm
Temperature: 68°F , 20°C
Dew Point: 45°F , 7°C
Humidity: 43%
Barometer: 30.07 inHg , 1018.3 hPa
Clouds: Mostly cloudy
Visibility: 10 miles , 16 km
Cloud details: Mostly cloudy 6000 ft
Mostly cloudy 9000 ft
2020/06/02 16:15 KCGS 021615Z AUTO 00000KT 10SM BKN060 BKN090 20/07 A3007 RMK AO1 T02040068
KNYG - Quantico Mcaf, Virginia, USA
Distance from station: SSE 35mi, 57km
Updated: Tue, 02-Jun-2020 11:56am EDT
Overcast
Overcast
 Wind from S
Wind: S 6 mph , 9 km/h
Temperature: 66°F , 19°C
Dew Point: 54°F , 12°C
Humidity: 64%
Barometer: 30.09 inHg , 1019 hPa
Clouds: Overcast
Visibility: 7 miles , 11 km
Cloud details: Overcast 8500 ft
2020/06/02 15:56 KNYG 021556Z 17005KT 7SM OVC085 19/12 A3009 RMK AO2 SLP190 T01890122
 
KFRR - Fort Royal, Virginia, USA
Distance from station: W 37mi, 59km
Updated: Tue, 02-Jun-2020 12:15pm EDT
Partly cloudy
Partly cloudy
 Wind from SSW
Wind: SSW 5 mph , 7 km/h
Temperature: 72°F , 22°C
Dew Point: 48°F , 9°C
Humidity: 44%
Barometer: 30.05 inHg , 1017.6 hPa
Clouds: Partly cloudy
Visibility: 10 miles , 16 km
Cloud details: Partly cloudy 10000 ft
2020/06/02 16:15 KFRR 021615Z AUTO 21004KT 10SM SCT100 22/09 A3005 RMK AO1
KMRB - Martinsburg, West Virginia, USA
Distance from station: NW 38mi, 61km
Updated: Tue, 02-Jun-2020 11:53am EDT
Overcast
Overcast
 Wind from calm
Wind: Calm
Temperature: 66°F , 19°C
Dew Point: 46°F , 8°C
Humidity: 49%
Barometer: 30.06 inHg , 1017.9 hPa
Clouds: Overcast
Visibility: 10 miles , 16 km
Cloud details: Overcast 9500 ft
2020/06/02 15:53 KMRB 021553Z 00000KT 10SM OVC095 19/08 A3006 RMK AO2 SLP177 T01940083
 
KADW - Andrews Afb, Maryland, USA
Distance from station: ESE 39mi, 63km
Updated: Tue, 02-Jun-2020 11:56am EDT
Mostly cloudy
Mostly cloudy
 Wind from NW
Wind: NW 3 mph , 6 km/h
Temperature: 68°F , 20°C
Dew Point: 48°F , 9°C
Humidity: 49%
Barometer: 30.07 inHg , 1018.3 hPa
Clouds: Mostly cloudy
Visibility: 10 miles , 16 km
Cloud details: Partly cloudy 6000 ft
Mostly cloudy 11000 ft
Mostly cloudy 13000 ft
Mostly cloudy 19000 ft
2020/06/02 15:56 KADW 021556Z AUTO 32003KT 10SM SCT060 BKN110 BKN130 BKN190 20/09 A3007 RMK AO2 SLP189 T02040087 $
KRMN - Stafford Regnl, Virginia, USA
Distance from station: S 39mi, 63km
Updated: Tue, 02-Jun-2020 12:15pm EDT
Partly cloudy
Partly cloudy
 Wind from calm
Wind: Calm
Temperature: 73°F , 23°C
Dew Point: 52°F , 11°C
Humidity: 47%
Barometer: 30.12 inHg , 1020 hPa
Clouds: Partly cloudy
Visibility: 10 miles , 16 km
Cloud details: Partly cloudy 8500 ft
2020/06/02 16:15 KRMN 021615Z AUTO 00000KT 10SM SCT085 23/11 A3012 RMK AO2 T02260114
 
KFME - Fort Meade, Maryland, USA
Distance from station: ENE 44mi, 70km
Updated: Tue, 02-Jun-2020 12:15pm EDT
Overcast
Overcast
 Wind from calm
Wind: Calm
Temperature: 64°F , 18°C
Dew Point: 52°F , 11°C
Humidity: 64%
Barometer: 30.10 inHg , 1019.3 hPa
Clouds: Overcast
Visibility: 10 miles , 16 km
Cloud details: Mostly cloudy 6000 ft
Overcast 8000 ft
2020/06/02 16:15 KFME 021615Z AUTO 00000KT 10SM BKN060 OVC080 18/11 A3010 RMK AO1
KRSP - Nsf Thurmont, Maryland, USA
Distance from station: N 48mi, 77km
Updated: Fri, 20-Mar-2020 2:43am EDT
NOT Current
Mist, Overcast
Mist, Overcast
 Wind from SW
Wind: SW 12 mph , 19 km/h, Gust: 20 mph , 31 km/h
Temperature: 55°F , 13°C
Dew Point: 55°F , 13°C
Humidity: 100%
Barometer: 30.06 inHg , 1017.9 hPa
Summary: Mist
Clouds: Overcast
Visibility: 2 miles , 3 km
Cloud details: Overcast 100 ft
2020/03/20 06:43 KRSP 200643Z AUTO 23010G17KT 2SM BR OVC001 13/13 A3006 RMK AO2 $
 
KEZF - Fredericksb/Shan, Virginia, USA
Distance from station: S 48mi, 78km
Updated: Tue, 02-Jun-2020 12:15pm EDT
Partly cloudy
Partly cloudy
 Wind from calm
Wind: Calm
Temperature: 70°F , 21°C
Dew Point: 55°F , 13°C
Humidity: 60%
Barometer: 30.07 inHg , 1018.3 hPa
Clouds: Partly cloudy
Visibility: 10 miles , 16 km
Cloud details: Partly cloudy 8500 ft
2020/06/02 16:15 KEZF 021615Z AUTO 00000KT 10SM SCT085 21/13 A3007 RMK AO2 T02130127
KBWI - Balto/Wash Intl, Maryland, USA
Distance from station: ENE 49mi, 80km
Updated: Tue, 02-Jun-2020 11:54am EDT
Overcast
Overcast
 Wind from NW
Wind: NW 5 mph , 7 km/h
Temperature: 70°F , 21°C
Dew Point: 46°F , 8°C
Humidity: 43%
Barometer: 30.07 inHg , 1018.3 hPa
Clouds: Overcast
Visibility: 10 miles , 16 km
Cloud details: Mostly cloudy 6000 ft
Overcast 10000 ft
2020/06/02 15:54 KBWI 021554Z 32004KT 10SM BKN060 OVC100 21/08 A3007 RMK AO2 SLP180 T02060078